Milton, MA (02186)

7:46 PM EDT on July 30, 2016 (GMT -0400)
Turner's Pond | | Change Station

Elev 66 ft 42.26 °N, 71.08 °W | Updated 6 seconds ago

Overcast
Overcast
74.3 °F
Feels Like 75 °F
N
0.0
Wind Variable Wind from East
Gusts 0.0 mph

Today
High -- | Low -- °F
--% Chance of Precip.
Yesterday
High -- | Low -- °F
Precip. -- in
Pressure 30.03 in
Visibility 0.8 miles
Clouds Mostly Cloudy 3500 ft
Mostly Cloudy 4200 ft
Overcast 7500 ft
Heat Index 75 °F
Dew Point 66 °F
Humidity 76%
Rainfall 0.00 in
Snow Depth Not available.
5:35 AM 8:05 PM
Waning Crescent, 10% visible
SPECI KOWD 302339Z 35008G23KT 3/4SM +TSRA BKN035 BKN042 OVC075 24/20 A3003 RMK AO2 RAB26 TSB36 P0024 T02390200
Pressure 30.03 in
Visibility 0.8 miles
Clouds Mostly Cloudy 3500 ft
Mostly Cloudy 4200 ft
Overcast 7500 ft
Heat Index 75 °F
Dew Point 66 °F
Humidity 76%
Rainfall 0.00 in
Snow Depth Not available.
5:35 AM 8:05 PM
Waning Crescent, 10% visible
SPECI KOWD 302339Z 35008G23KT 3/4SM +TSRA BKN035 BKN042 OVC075 24/20 A3003 RMK AO2 RAB26 TSB36 P0024 T02390200

10-Day Weather Forecast

Almanac

Astronomy

Jul. 30, 2016 Rise Set
Actual Time
Civil Twilight
Nautical Twilight
Astronomical Twilight
Moon
Length of Visible Light
Length of Day
Tomorrow will be .
, % of the Moon is Illuminated

Today's Extremes

State Highs State Lows

Community

WunderPhotos

Upload Photos

1,928,680 photos uploaded!

WunderBlog® & News

Nearby

Air Quality

  Air Quality AQ Index Pollutant
Not available.

Snow Depth

Station Depth Elevation

Earthquake Activity

City Distance Mag. Time & Date
Minimum magnitude displayed is 2.5.

Coastal Water Temperatures

Place Temperature

Stations

Nearby Weather Stations

Station Location Temp. Windchill Dew Point Humidity Wind Precip. Elev Updated Type
                   

Watches & Warnings

There are currently no watches in effect.